Terminal Aerodrome Forecast
Issued by NWS

Home | Current Version | Previous Version | Text Only | Print | Product List | Glossary Off
Versions: 1 2 3 4 5 6 7 8 9 10 11 12 13 14 15 16 17 18 19 20 21

626
FTUS43 KMPX 271725
TAFRWF
TAF
KRWF 271725Z 2718/2818 08018G27KT P6SM -RA SCT020 OVC035
      TEMPO 2718/2721 3SM RA BKN025
     FM272100 09016G24KT 6SM -RA BR SCT012 OVC020
     FM280300 07011G17KT 3SM -RA BR SCT009 OVC015
     FM281600 06009G15KT 6SM BR SCT010 OVC020=

USA.gov is the U.S. government's official web portal to all federal, state and local government web resources and services.